Time;durP1;ratioP1;P1;durP2;ratioP2;P2;SDS_P1;SDS_P2;PMS_P1;PMS_P2;Temp;Humidity;BMP_temperature;BMP_pressure;BME280_temperature;BME280_humidity;BME280_pressure;Samples;Min_cycle;Max_cycle;Signal;HPM_P1;HPM_P2
2024/03/15 00:01:38;;;;;;;4.47;2.20;;;;;;;10.21;76.68;95181.69;5080902;28;20226;-78
2024/03/15 00:04:04;;;;;;;2.53;2.10;;;;;;;10.20;77.12;95174.88;5082131;28;20192;-77
2024/03/15 00:06:29;;;;;;;2.97;2.37;;;;;;;10.19;77.03;95182.81;5077971;28;20216;-78
2024/03/15 00:08:56;;;;;;;2.50;2.30;;;;;;;10.11;77.21;95173.19;5060954;28;20189;-78
2024/03/15 00:11:22;;;;;;;3.33;2.40;;;;;;;10.03;77.91;95178.34;5082156;28;20204;-77
2024/03/15 00:13:48;;;;;;;3.70;2.43;;;;;;;10.01;77.98;95177.69;5063154;28;20212;-77
2024/03/15 00:16:14;;;;;;;2.57;1.83;;;;;;;10.02;78.32;95171.53;5064488;28;20692;-77
2024/03/15 00:18:39;;;;;;;3.97;2.47;;;;;;;10.02;78.31;95175.91;5084018;28;20256;-77
2024/03/15 00:21:05;;;;;;;5.27;2.80;;;;;;;9.89;78.63;95171.94;5083121;28;20180;-77
2024/03/15 00:23:30;;;;;;;3.50;2.23;;;;;;;9.87;78.63;95171.25;5078873;28;20216;-77
2024/03/15 00:25:56;;;;;;;2.90;2.40;;;;;;;9.81;78.89;95178.84;5066667;28;20291;-78
2024/03/15 00:28:21;;;;;;;2.60;2.30;;;;;;;9.74;79.76;95175.22;5065713;28;20295;-78
2024/03/15 00:30:49;;;;;;;3.00;2.27;;;;;;;9.66;79.83;95170.78;5083129;28;20253;-77
2024/03/15 00:33:14;;;;;;;4.30;2.27;;;;;;;9.69;79.78;95180.84;5080245;28;20676;-78
2024/03/15 00:35:42;;;;;;;2.30;2.07;;;;;;;9.73;78.92;95174.41;5078612;28;20208;-77
2024/03/15 00:38:08;;;;;;;5.13;2.27;;;;;;;9.81;79.14;95171.06;5069341;28;20188;-77
2024/03/15 00:40:33;;;;;;;2.83;2.27;;;;;;;9.67;79.62;95169.81;5081390;28;20190;-77
2024/03/15 00:42:58;;;;;;;4.37;2.23;;;;;;;9.80;78.69;95169.41;5063658;28;20196;-78
2024/03/15 00:45:24;;;;;;;3.87;2.00;;;;;;;9.80;77.98;95165.03;5079199;28;20185;-78
2024/03/15 00:47:51;;;;;;;2.70;2.13;;;;;;;9.84;78.00;95160.38;5099366;28;20601;-78
2024/03/15 00:50:17;;;;;;;2.13;1.60;;;;;;;9.86;77.53;95161.03;5076095;28;20641;-77
2024/03/15 00:52:42;;;;;;;3.67;1.90;;;;;;;9.87;77.46;95166.06;5064100;28;20180;-77
2024/03/15 00:55:08;;;;;;;2.87;1.90;;;;;;;9.92;76.99;95163.84;5077672;28;20188;-78
2024/03/15 00:57:34;;;;;;;2.40;1.97;;;;;;;10.11;76.18;95162.81;5062009;28;20213;-77
2024/03/15 00:59:59;;;;;;;2.47;2.07;;;;;;;10.05;76.14;95157.41;5079615;28;20265;-78
2024/03/15 01:02:24;;;;;;;4.03;2.13;;;;;;;10.03;76.23;95162.75;5063158;28;20198;-77
2024/03/15 01:04:51;;;;;;;3.30;1.87;;;;;;;10.10;75.52;95156.00;5080905;28;20207;-78
2024/03/15 01:07:16;;;;;;;3.73;2.00;;;;;;;10.10;75.56;95161.19;5078943;28;20223;-78
2024/03/15 01:09:42;;;;;;;3.10;1.80;;;;;;;10.09;75.76;95154.38;5062763;28;20192;-78
2024/03/15 01:12:07;;;;;;;2.63;1.67;;;;;;;10.07;75.97;95147.69;5065196;28;20191;-77
2024/03/15 01:14:32;;;;;;;2.10;1.60;;;;;;;10.09;75.58;95153.56;5079839;28;20248;-77
2024/03/15 01:16:58;;;;;;;2.07;1.60;;;;;;;10.08;76.19;95151.94;5062372;28;20764;-78
2024/03/15 01:19:26;;;;;;;2.63;1.73;;;;;;;10.07;75.98;95142.50;5063150;28;20188;-77
2024/03/15 01:21:52;;;;;;;2.47;2.03;;;;;;;10.17;75.42;95151.84;5100411;28;20177;-77
2024/03/15 01:24:17;;;;;;;3.10;1.50;;;;;;;10.19;75.42;95146.47;5096096;28;20561;-78
2024/03/15 01:26:43;;;;;;;3.67;1.90;;;;;;;10.21;75.31;95147.94;5070349;28;20208;-78
2024/03/15 01:29:08;;;;;;;3.37;1.50;;;;;;;10.23;74.79;95140.03;5080253;28;20210;-77
2024/03/15 01:31:34;;;;;;;2.10;1.90;;;;;;;10.27;74.54;95146.56;5078141;28;20672;-77
2024/03/15 01:34:00;;;;;;;1.83;1.70;;;;;;;10.28;74.24;95142.97;5078720;28;20223;-77
2024/03/15 01:36:25;;;;;;;2.73;1.83;;;;;;;10.30;73.94;95135.84;5063145;28;20197;-78
2024/03/15 01:38:50;;;;;;;2.07;1.57;;;;;;;10.31;73.99;95136.66;5080228;28;20185;-78
2024/03/15 01:41:16;;;;;;;2.47;1.73;;;;;;;10.31;73.75;95137.47;5063900;28;20192;-77
2024/03/15 01:43:48;;;;;;;2.67;1.63;;;;;;;10.37;73.58;95134.25;5079063;28;20253;-77
2024/03/15 01:46:13;;;;;;;1.60;1.50;;;;;;;10.27;74.12;95136.16;5062268;28;20205;-78
2024/03/15 01:48:38;;;;;;;3.67;1.70;;;;;;;10.23;74.23;95124.47;5076823;28;20185;-77
2024/03/15 01:51:04;;;;;;;1.93;1.80;;;;;;;10.20;73.97;95132.53;5063546;28;20188;-78
2024/03/15 01:53:29;;;;;;;2.83;1.77;;;;;;;10.19;74.47;95130.91;5078480;28;20215;-78
2024/03/15 01:55:55;;;;;;;2.03;1.60;;;;;;;10.27;73.70;95128.38;5080542;28;20197;-78
2024/03/15 01:58:20;;;;;;;2.10;1.70;;;;;;;10.18;73.80;95124.09;5063865;28;20383;-77
2024/03/15 02:00:46;;;;;;;2.47;1.50;;;;;;;10.25;73.20;95126.91;5064548;28;20181;-77
2024/03/15 02:03:11;;;;;;;1.97;1.40;;;;;;;10.29;73.05;95121.25;5096605;28;20184;-77
2024/03/15 02:05:36;;;;;;;2.47;1.70;;;;;;;10.26;72.76;95123.34;5098402;28;20181;-78
2024/03/15 02:08:06;;;;;;;2.20;1.73;;;;;;;10.37;72.14;95120.47;5064232;28;20712;-78
2024/03/15 02:10:32;;;;;;;2.33;2.00;;;;;;;10.36;71.90;95124.03;5075219;28;20188;-78
2024/03/15 02:12:57;;;;;;;2.03;1.60;;;;;;;10.44;71.02;95122.28;5077258;28;20275;-78
2024/03/15 02:15:22;;;;;;;1.47;1.37;;;;;;;10.52;70.21;95123.28;5080405;28;20188;-77
2024/03/15 02:17:48;;;;;;;1.40;1.30;;;;;;;10.65;69.41;95129.66;5079766;28;20198;-77
2024/03/15 02:20:15;;;;;;;1.57;1.47;;;;;;;10.77;68.92;95125.78;5063691;28;20180;-77
2024/03/15 02:22:40;;;;;;;2.10;1.23;;;;;;;10.77;68.83;95124.97;5064798;28;20204;-77
2024/03/15 02:25:07;;;;;;;1.50;1.40;;;;;;;10.85;68.12;95131.97;5065167;28;20630;-77
2024/03/15 02:27:32;;;;;;;1.70;1.47;;;;;;;10.98;67.21;95121.94;5098235;28;20201;-78
2024/03/15 02:29:58;;;;;;;2.70;1.33;;;;;;;11.01;67.03;95129.41;5098951;28;20226;-78
2024/03/15 02:32:23;;;;;;;1.60;1.40;;;;;;;11.12;66.53;95123.06;5061575;28;20180;-78
2024/03/15 02:34:51;;;;;;;2.07;1.33;;;;;;;11.22;66.08;95126.31;5063888;28;20192;-77
2024/03/15 02:37:17;;;;;;;2.53;1.63;;;;;;;11.26;65.37;95131.06;5080280;28;20208;-77
2024/03/15 02:39:42;;;;;;;2.00;1.30;;;;;;;11.39;64.28;95121.94;5098247;28;20683;-78
2024/03/15 02:42:07;;;;;;;1.40;1.13;;;;;;;11.56;63.90;95128.78;5077532;28;20195;-78
2024/03/15 02:44:32;;;;;;;1.40;1.30;;;;;;;11.64;63.62;95126.16;5076918;28;20557;-77
2024/03/15 02:46:58;;;;;;;2.20;1.20;;;;;;;11.61;63.08;95127.31;5081965;28;20310;-77
2024/03/15 02:49:23;;;;;;;1.40;1.10;;;;;;;11.78;63.13;95125.50;5078825;28;20188;-78
2024/03/15 02:51:51;;;;;;;3.20;1.40;;;;;;;11.72;62.69;95123.56;5082456;28;20184;-78
2024/03/15 02:54:16;;;;;;;1.80;1.23;;;;;;;11.72;63.27;95138.34;5079228;28;20649;-77
2024/03/15 02:56:42;;;;;;;2.53;1.17;;;;;;;11.77;63.16;95130.88;5081636;28;20203;-77
2024/03/15 02:59:07;;;;;;;1.97;1.50;;;;;;;11.76;63.15;95132.66;5079881;28;20176;-77
2024/03/15 03:01:33;;;;;;;2.10;1.40;;;;;;;11.78;62.97;95138.50;5103375;28;20186;-77
2024/03/15 03:03:59;;;;;;;1.87;1.20;;;;;;;11.80;62.94;95140.97;5081670;28;20245;-78
2024/03/15 03:06:24;;;;;;;1.93;1.50;;;;;;;11.86;62.89;95141.13;5074132;28;20208;-78
2024/03/15 03:08:49;;;;;;;1.77;1.40;;;;;;;11.82;62.91;95145.03;5069225;28;20219;-78
2024/03/15 03:11:17;;;;;;;2.27;1.23;;;;;;;11.84;62.63;95150.09;5082044;28;20713;-78
2024/03/15 03:13:43;;;;;;;3.57;1.60;;;;;;;11.88;62.69;95149.59;5082171;28;20271;-77
2024/03/15 03:16:10;;;;;;;2.50;1.30;;;;;;;11.84;62.54;95147.50;5068457;28;20223;-78
2024/03/15 03:18:35;;;;;;;3.67;1.67;;;;;;;11.84;62.22;95153.50;5082154;28;20188;-78
2024/03/15 03:21:01;;;;;;;4.23;1.50;;;;;;;11.92;62.50;95155.25;5084494;28;20207;-78
2024/03/15 03:23:27;;;;;;;2.37;1.37;;;;;;;11.94;62.23;95155.13;5063638;28;20188;-78
2024/03/15 03:25:53;;;;;;;2.27;1.43;;;;;;;11.89;62.43;95153.00;5065091;28;20204;-78
2024/03/15 03:28:19;;;;;;;1.70;1.50;;;;;;;12.00;61.84;95150.03;5066173;28;20634;-78
2024/03/15 03:30:46;;;;;;;2.60;1.57;;;;;;;11.97;61.54;95154.78;5076412;28;20238;-78
2024/03/15 03:33:12;;;;;;;2.50;1.40;;;;;;;11.98;61.36;95153.78;5079882;28;20665;-77
2024/03/15 03:35:39;;;;;;;3.10;1.40;;;;;;;12.07;60.97;95158.00;5083180;28;20592;-78
2024/03/15 03:38:05;;;;;;;1.37;1.27;;;;;;;12.09;60.88;95156.84;5080100;28;20189;-78
2024/03/15 03:40:33;;;;;;;1.60;1.30;;;;;;;12.28;59.81;95149.63;5083134;28;20187;-77
2024/03/15 03:42:58;;;;;;;1.30;1.20;;;;;;;12.35;59.50;95154.00;5082646;28;20212;-78
2024/03/15 03:45:24;;;;;;;1.80;1.30;;;;;;;12.34;60.00;95148.97;5082506;28;20670;-78
2024/03/15 03:47:49;;;;;;;1.67;1.47;;;;;;;12.46;58.94;95147.66;5100847;28;20703;-78
2024/03/15 03:50:17;;;;;;;1.83;1.43;;;;;;;12.38;59.17;95153.69;5066882;28;20192;-78
2024/03/15 03:52:43;;;;;;;1.30;1.20;;;;;;;12.38;59.16;95152.88;5074399;28;20185;-77
2024/03/15 03:55:09;;;;;;;1.10;1.00;;;;;;;12.37;59.42;95156.47;5083147;28;20184;-78
2024/03/15 03:57:35;;;;;;;1.73;1.20;;;;;;;12.49;59.04;95152.50;5062225;28;20209;-78
2024/03/15 04:00:04;;;;;;;2.37;1.30;;;;;;;12.42;59.37;95148.97;5084845;28;20654;-78
2024/03/15 04:02:31;;;;;;;4.10;1.60;;;;;;;12.12;60.08;95156.53;5083872;28;20219;-77
2024/03/15 04:04:57;;;;;;;1.67;1.10;;;;;;;12.25;60.03;95153.41;5084820;28;20247;-78
2024/03/15 04:07:28;;;;;;;1.60;1.30;;;;;;;12.22;60.25;95153.75;5082593;28;20291;-77
2024/03/15 04:09:54;;;;;;;3.90;1.53;;;;;;;12.28;60.09;95154.84;5077325;28;20257;-77
2024/03/15 04:12:19;;;;;;;2.20;1.33;;;;;;;12.29;60.14;95151.28;5083841;28;20219;-77
2024/03/15 04:14:45;;;;;;;2.60;1.53;;;;;;;12.18;60.63;95155.84;5082101;28;20223;-78
2024/03/15 04:17:10;;;;;;;2.77;1.50;;;;;;;12.09;60.96;95154.25;5084304;28;20201;-78
2024/03/15 04:19:36;;;;;;;2.67;1.50;;;;;;;12.08;60.70;95157.03;5082818;28;20231;-77
2024/03/15 04:22:03;;;;;;;2.20;1.50;;;;;;;12.06;61.65;95152.00;5083755;28;20184;-78
2024/03/15 04:24:29;;;;;;;2.57;1.50;;;;;;;12.12;61.28;95150.53;5068495;28;20181;-78
2024/03/15 04:26:54;;;;;;;2.67;1.43;;;;;;;12.03;61.63;95151.53;5068022;28;20254;-77
2024/03/15 04:29:19;;;;;;;2.97;1.90;;;;;;;12.01;61.97;95154.25;5082629;28;20185;-77
2024/03/15 04:31:45;;;;;;;3.83;1.83;;;;;;;11.89;62.59;95155.59;5085478;28;20626;-78
2024/03/15 04:34:11;;;;;;;1.77;1.30;;;;;;;11.93;62.98;95156.91;5068060;28;20653;-78
2024/03/15 04:36:36;;;;;;;2.77;1.50;;;;;;;11.95;62.96;95154.94;5081858;28;20282;-77
2024/03/15 04:39:05;;;;;;;1.77;1.63;;;;;;;11.84;62.90;95157.91;5084097;28;20180;-78
2024/03/15 04:41:30;;;;;;;1.97;1.63;;;;;;;11.80;63.38;95160.00;5065125;28;20199;-77
2024/03/15 04:43:56;;;;;;;3.10;1.70;;;;;;;11.77;63.30;95159.50;5067286;28;20196;-78
2024/03/15 04:46:21;;;;;;;4.33;1.80;;;;;;;11.76;63.99;95165.69;5100224;28;20199;-78
2024/03/15 04:48:47;;;;;;;2.73;1.40;;;;;;;11.73;64.06;95161.59;5084466;28;20183;-78
2024/03/15 04:51:13;;;;;;;1.83;1.60;;;;;;;11.63;64.26;95164.38;5068270;28;20322;-78
2024/03/15 04:53:39;;;;;;;2.93;1.80;;;;;;;11.60;64.53;95162.09;5079501;28;20180;-78
2024/03/15 04:56:05;;;;;;;3.27;1.73;;;;;;;11.63;64.69;95166.97;5081634;28;20290;-78
2024/03/15 04:58:31;;;;;;;3.53;1.80;;;;;;;11.62;64.54;95169.72;5083852;28;20184;-78
2024/03/15 05:00:57;;;;;;;2.73;1.57;;;;;;;11.62;64.70;95170.53;5068878;28;20184;-78
2024/03/15 05:03:22;;;;;;;1.40;1.30;;;;;;;11.57;64.94;95175.44;5067479;28;20192;-77
2024/03/15 05:05:48;;;;;;;1.87;1.57;;;;;;;11.52;65.22;95180.31;5084908;28;20204;-77
2024/03/15 05:08:14;;;;;;;2.60;1.43;;;;;;;11.45;65.52;95187.13;5081488;28;20208;-78
2024/03/15 05:10:39;;;;;;;4.17;1.87;;;;;;;11.53;65.43;95181.91;5080535;28;20933;-78
2024/03/15 05:13:06;;;;;;;3.40;1.83;;;;;;;11.40;65.91;95183.41;5067672;28;20192;-78
2024/03/15 05:15:33;;;;;;;2.03;1.40;;;;;;;11.45;65.55;95184.53;5081586;28;20193;-78
2024/03/15 05:17:59;;;;;;;3.30;1.90;;;;;;;11.48;65.27;95180.78;5098124;28;20234;-78
2024/03/15 05:20:24;;;;;;;2.23;1.60;;;;;;;11.35;66.29;95191.66;5065203;28;20192;-78
2024/03/15 05:22:49;;;;;;;2.30;1.80;;;;;;;11.32;66.38;95189.41;5081084;28;20604;-78
2024/03/15 05:25:15;;;;;;;2.10;1.77;;;;;;;11.32;66.15;95190.22;5066562;28;20210;-78
2024/03/15 05:27:40;;;;;;;4.03;1.90;;;;;;;11.33;66.12;95194.44;5081277;28;20763;-77
2024/03/15 05:30:07;;;;;;;2.03;1.70;;;;;;;11.33;66.06;95196.22;5084036;28;20188;-78
2024/03/15 05:32:33;;;;;;;2.80;1.83;;;;;;;11.26;66.50;95196.03;5066435;28;20184;-77
2024/03/15 05:34:59;;;;;;;1.57;1.40;;;;;;;11.25;66.64;95196.19;5066158;28;20199;-78
2024/03/15 05:37:26;;;;;;;1.67;1.40;;;;;;;11.27;66.38;95192.47;5066035;28;20219;-77
2024/03/15 05:39:51;;;;;;;1.93;1.60;;;;;;;11.20;66.56;95198.44;5080985;28;20189;-77
2024/03/15 05:42:17;;;;;;;2.10;1.90;;;;;;;11.15;66.86;95203.34;5061500;28;20284;-77
2024/03/15 05:44:45;;;;;;;4.00;2.17;;;;;;;11.10;67.01;95200.38;5068039;28;20574;-77
2024/03/15 05:47:12;;;;;;;4.10;1.97;;;;;;;11.13;66.71;95206.09;5076962;28;20580;-77
2024/03/15 05:49:37;;;;;;;4.17;1.97;;;;;;;11.13;67.02;95207.84;5061207;28;20181;-76
2024/03/15 05:52:03;;;;;;;3.03;2.03;;;;;;;11.12;67.57;95207.03;5076858;28;20184;-77
2024/03/15 05:54:28;;;;;;;3.17;1.80;;;;;;;11.21;66.39;95213.06;5062868;28;20827;-77
2024/03/15 05:56:53;;;;;;;1.93;1.80;;;;;;;11.24;66.41;95217.97;5080477;28;20335;-78
2024/03/15 05:59:19;;;;;;;3.30;1.93;;;;;;;11.27;66.75;95213.25;5086048;28;20307;-77
2024/03/15 06:01:44;;;;;;;4.97;2.30;;;;;;;11.22;66.44;95219.91;5080347;28;20200;-77
2024/03/15 06:04:10;;;;;;;2.90;2.10;;;;;;;11.22;66.52;95219.91;5077798;28;20229;-77
2024/03/15 06:06:36;;;;;;;1.73;1.60;;;;;;;11.35;65.98;95222.84;5058058;28;20211;-77
2024/03/15 06:09:04;;;;;;;3.63;1.77;;;;;;;11.22;66.51;95214.69;5091167;28;20176;-78
2024/03/15 06:11:30;;;;;;;2.63;1.90;;;;;;;11.37;65.85;95223.50;5060580;28;20231;-77
2024/03/15 06:13:56;;;;;;;2.53;1.77;;;;;;;11.31;66.34;95226.75;5072030;28;20662;-77
2024/03/15 06:16:26;;;;;;;3.87;1.90;;;;;;;11.27;66.21;95223.66;5087404;28;20216;-76
2024/03/15 06:18:52;;;;;;;4.87;1.83;;;;;;;11.32;65.95;95225.78;5092724;28;20172;-78
2024/03/15 06:21:17;;;;;;;2.70;2.00;;;;;;;11.29;66.03;95226.09;5055764;28;20215;-78
2024/03/15 06:23:43;;;;;;;4.13;2.17;;;;;;;11.18;66.83;95223.78;5065820;28;20187;-77
2024/03/15 06:26:08;;;;;;;3.47;2.00;;;;;;;11.05;67.31;95222.47;5058999;28;20204;-77
2024/03/15 06:28:35;;;;;;;3.43;2.30;;;;;;;11.10;67.72;95231.56;5067074;28;20351;-78
2024/03/15 06:31:01;;;;;;;7.60;2.30;;;;;;;11.21;67.32;95220.88;5072202;28;20267;-76
2024/03/15 06:33:31;;;;;;;3.07;2.13;;;;;;;11.20;67.16;95230.44;5057899;28;20646;-76
2024/03/15 06:36:00;;;;;;;2.57;2.03;;;;;;;11.29;67.25;95232.09;5079532;28;20200;-77
2024/03/15 06:43:58;;;;;;;2.60;2.17;;;;;;;11.47;67.34;95237.16;5077663;28;20196;-78
2024/03/15 06:46:30;;;;;;;4.10;2.20;;;;;;;11.57;66.93;95237.00;5079065;28;20268;-78
2024/03/15 06:48:59;;;;;;;3.77;2.13;;;;;;;11.75;66.58;95236.88;5062297;28;20287;-78
2024/03/15 06:54:11;;;;;;;2.73;2.43;;;;;;;11.96;65.97;95246.84;5079316;28;20191;-77
2024/03/15 06:56:37;;;;;;;3.17;2.17;;;;;;;11.96;66.35;95239.03;5075695;28;20196;-78
2024/03/15 06:59:02;;;;;;;4.47;2.47;;;;;;;12.01;65.72;95242.75;5079024;28;20230;-77
2024/03/15 07:01:28;;;;;;;2.83;2.20;;;;;;;12.02;66.05;95236.59;5078372;28;20176;-82
2024/03/15 07:03:55;;;;;;;3.93;2.20;;;;;;;11.96;66.96;95239.84;5059027;28;20833;-77
2024/03/15 07:06:20;;;;;;;3.37;2.53;;;;;;;12.23;65.90;95236.06;5060779;28;20299;-78
2024/03/15 07:08:51;;;;;;;3.53;2.60;;;;;;;12.28;65.84;95235.56;5076875;28;20274;-77
2024/03/15 07:11:17;;;;;;;2.77;2.20;;;;;;;12.32;66.03;95244.69;5077905;28;20177;-77
2024/03/15 07:13:42;;;;;;;3.27;2.30;;;;;;;12.42;65.76;95237.50;5079417;28;20637;-77
2024/03/15 07:16:08;;;;;;;2.83;2.50;;;;;;;12.50;65.37;95237.47;5063742;28;20201;-76
2024/03/15 07:18:33;;;;;;;3.83;2.50;;;;;;;12.43;65.21;95236.50;5070311;28;20193;-76
2024/03/15 07:20:59;;;;;;;4.40;2.07;;;;;;;12.36;65.75;95238.16;5070635;28;20188;-76
2024/03/15 07:23:27;;;;;;;4.60;2.80;;;;;;;12.60;65.18;95245.91;5075378;28;20184;-78
2024/03/15 07:25:52;;;;;;;4.83;2.70;;;;;;;12.75;64.98;95251.25;5063416;28;20200;-77
2024/03/15 07:28:21;;;;;;;3.10;2.13;;;;;;;12.85;64.36;95245.84;5070704;28;20200;-77
2024/03/15 07:30:47;;;;;;;4.37;2.13;;;;;;;12.83;64.49;95245.19;5092888;28;20669;-78
2024/03/15 07:33:13;;;;;;;4.80;4.30;;;;;;;12.90;64.29;95246.16;5062664;28;20184;-77
2024/03/15 07:35:40;;;;;;;4.40;2.43;;;;;;;12.84;64.79;95246.81;5075037;28;20275;-77
2024/03/15 07:38:06;;;;;;;2.97;2.20;;;;;;;13.06;64.13;95251.28;5079964;28;20673;-77
2024/03/15 07:40:31;;;;;;;2.53;1.97;;;;;;;13.05;64.20;95254.88;5055775;28;20192;-77
2024/03/15 07:42:58;;;;;;;2.93;2.40;;;;;;;13.06;64.11;95256.50;5073709;28;20232;-77
2024/03/15 07:45:24;;;;;;;3.40;2.00;;;;;;;13.08;64.55;95254.56;5078592;28;20180;-77
2024/03/15 07:47:49;;;;;;;3.33;2.07;;;;;;;13.24;63.71;95264.91;5097541;28;20288;-76
2024/03/15 07:50:14;;;;;;;1.80;1.70;;;;;;;13.33;63.07;95261.28;5065091;28;20203;-76
2024/03/15 07:52:40;;;;;;;3.03;1.93;;;;;;;13.33;63.34;95270.91;5091786;28;20188;-77
2024/03/15 07:55:05;;;;;;;3.33;2.07;;;;;;;13.40;63.17;95271.84;5057242;28;20190;-76
2024/03/15 07:57:31;;;;;;;5.00;2.20;;;;;;;13.49;62.85;95264.78;5057707;28;20702;-77
2024/03/15 07:59:56;;;;;;;2.70;1.67;;;;;;;13.68;62.52;95268.75;5097116;28;20180;-77
2024/03/15 08:02:24;;;;;;;3.00;2.00;;;;;;;13.46;62.97;95270.34;5094485;28;20222;-77
2024/03/15 08:04:50;;;;;;;2.07;1.50;;;;;;;13.37;63.35;95282.63;5095296;28;20627;-76
2024/03/15 08:07:16;;;;;;;2.20;1.50;;;;;;;13.58;62.91;95276.78;5076325;28;20283;-76
2024/03/15 08:09:44;;;;;;;2.37;1.43;;;;;;;13.45;63.63;95279.16;5075721;28;20271;-76
2024/03/15 08:12:11;;;;;;;2.13;1.10;;;;;;;13.52;62.98;95274.91;5076357;28;20191;-76
2024/03/15 08:14:37;;;;;;;2.17;1.20;;;;;;;13.91;61.93;95280.00;5090956;28;20295;-77
2024/03/15 08:17:04;;;;;;;2.30;1.50;;;;;;;13.68;62.23;95272.16;5078907;28;20257;-77
2024/03/15 08:19:30;;;;;;;3.93;1.50;;;;;;;13.96;61.57;95266.41;5077423;28;20660;-76
2024/03/15 08:21:56;;;;;;;2.00;1.43;;;;;;;14.08;61.51;95259.81;5061447;28;20230;-77
2024/03/15 08:24:21;;;;;;;1.40;1.30;;;;;;;14.17;60.90;95269.19;5069577;28;20546;-77
2024/03/15 08:26:47;;;;;;;1.30;1.17;;;;;;;14.23;60.40;95273.72;5079957;28;20261;-77
2024/03/15 08:29:12;;;;;;;3.37;1.40;;;;;;;14.55;60.00;95275.22;5088700;28;20199;-76
2024/03/15 08:31:39;;;;;;;2.77;1.43;;;;;;;14.63;59.69;95280.38;5066441;28;20264;-77
2024/03/15 08:34:06;;;;;;;1.80;1.33;;;;;;;14.66;59.78;95284.44;5090663;28;20196;-77
2024/03/15 08:36:33;;;;;;;2.53;1.23;;;;;;;14.69;60.03;95289.31;5092727;28;21462;-77
2024/03/15 08:38:59;;;;;;;1.10;1.00;;;;;;;15.26;59.05;95292.09;5063642;28;20180;-77
2024/03/15 08:41:24;;;;;;;1.77;1.07;;;;;;;15.27;58.71;95296.31;5057443;28;20677;-77
2024/03/15 08:43:52;;;;;;;1.40;1.13;;;;;;;15.22;58.77;95293.47;5061090;28;20573;-78
2024/03/15 08:46:17;;;;;;;1.20;1.10;;;;;;;15.61;57.98;95299.38;5079410;28;20287;-77
2024/03/15 08:48:42;;;;;;;1.57;1.10;;;;;;;15.75;57.90;95296.72;5075064;28;20246;-77
2024/03/15 08:51:12;;;;;;;1.10;1.00;;;;;;;15.70;57.57;95300.88;5065621;28;20177;-78
2024/03/15 08:53:38;;;;;;;2.20;1.27;;;;;;;15.75;57.49;95301.97;5061999;28;20187;-77
2024/03/15 08:56:03;;;;;;;1.63;1.30;;;;;;;15.97;57.59;95299.34;5081845;28;20200;-77
2024/03/15 08:58:29;;;;;;;2.20;0.97;;;;;;;15.89;57.09;95300.25;5094944;28;20173;-76
2024/03/15 09:00:55;;;;;;;1.23;0.97;;;;;;;16.15;56.50;95297.91;5056924;28;20176;-76
2024/03/15 09:03:20;;;;;;;2.87;1.00;;;;;;;16.02;56.97;95292.56;5070025;28;20229;-76
2024/03/15 09:05:46;;;;;;;2.10;1.13;;;;;;;16.25;56.65;95292.34;5069430;28;20200;-80
2024/03/15 09:08:12;;;;;;;3.73;0.93;;;;;;;16.48;55.86;95294.75;5056894;28;20623;-76
2024/03/15 09:10:37;;;;;;;2.20;0.73;;;;;;;16.15;56.07;95297.09;5056851;28;20183;-77
2024/03/15 09:13:04;;;;;;;1.97;1.00;;;;;;;16.20;56.08;95293.91;5056405;28;20200;-77
2024/03/15 09:15:29;;;;;;;1.57;1.00;;;;;;;16.27;55.80;95300.03;5087783;28;20234;-77
2024/03/15 09:17:58;;;;;;;3.17;1.07;;;;;;;16.58;55.29;95305.72;5071026;28;20180;-76
2024/03/15 09:20:33;;;;;;;1.43;1.00;;;;;;;16.61;55.39;95302.72;5072249;28;20173;-76
2024/03/15 09:23:01;;;;;;;1.50;1.10;;;;;;;16.48;55.66;95299.19;5072229;28;20183;-76
2024/03/15 09:25:27;;;;;;;1.52;0.90;;;;;;;16.27;56.25;95310.50;5053638;28;20645;-75
2024/03/15 09:27:53;;;;;;;2.83;1.00;;;;;;;16.46;55.43;95316.91;5088188;28;20192;-76
2024/03/15 09:30:20;;;;;;;2.00;1.00;;;;;;;16.10;56.73;95310.75;5055259;28;20184;-76
2024/03/15 09:32:48;;;;;;;1.70;0.88;;;;;;;15.87;57.30;95312.75;5067315;28;20192;-76
2024/03/15 09:35:14;;;;;;;0.95;0.70;;;;;;;15.69;59.53;95313.16;5073057;28;20782;-76
2024/03/15 09:37:48;;;;;;;1.83;1.10;;;;;;;15.76;60.79;95311.44;5072172;28;20193;-77
2024/03/15 09:40:15;;;;;;;1.48;0.90;;;;;;;15.62;61.51;95301.78;5069919;28;20180;-76
2024/03/15 09:42:42;;;;;;;1.43;0.80;;;;;;;15.51;61.06;95304.88;5053228;28;20613;-76
2024/03/15 09:45:07;;;;;;;2.03;1.40;;;;;;;15.48;61.50;95307.84;5072517;28;20196;-77
2024/03/15 09:47:33;;;;;;;1.38;1.10;;;;;;;15.72;61.36;95311.97;5054037;28;20579;-76
2024/03/15 09:49:59;;;;;;;1.80;0.90;;;;;;;15.56;61.33;95308.56;5068054;28;20227;-76
2024/03/15 09:52:24;;;;;;;1.17;1.00;;;;;;;15.51;62.40;95310.09;5065958;28;20535;-79
2024/03/15 09:54:49;;;;;;;1.60;0.80;;;;;;;15.27;62.60;95317.25;5089716;28;20250;-77
2024/03/15 09:57:16;;;;;;;1.20;1.10;;;;;;;15.70;60.99;95311.34;5070955;28;20230;-77
2024/03/15 09:59:42;;;;;;;1.33;0.83;;;;;;;15.54;62.21;95314.97;5052337;28;20192;-77
2024/03/15 10:02:22;;;;;;;1.17;1.03;;;;;;;15.59;61.56;95304.75;5067306;28;20212;-77
2024/03/15 10:04:52;;;;;;;1.43;1.00;;;;;;;15.56;60.83;95313.81;5054802;28;20192;-77
2024/03/15 10:07:21;;;;;;;1.53;1.03;;;;;;;15.76;60.61;95315.84;5068446;28;20204;-77
2024/03/15 10:09:48;;;;;;;3.80;0.80;;;;;;;15.20;61.98;95310.34;5070071;28;20260;-77
2024/03/15 10:12:13;;;;;;;1.83;1.10;;;;;;;15.35;61.48;95311.13;5068422;28;20709;-76
2024/03/15 10:14:38;;;;;;;1.37;1.03;;;;;;;15.71;60.29;95318.19;5050523;28;20192;-77
2024/03/15 10:17:04;;;;;;;3.00;1.10;;;;;;;14.82;62.54;95307.78;5070705;28;20204;-77
2024/03/15 10:19:30;;;;;;;1.10;1.00;;;;;;;14.53;62.54;95331.28;5070814;28;20340;-77
2024/03/15 10:21:58;;;;;;;2.70;1.10;;;;;;;14.19;63.76;95322.06;5072252;28;20237;-76
2024/03/15 10:24:24;;;;;;;2.10;1.20;;;;;;;14.69;62.73;95323.28;5059623;28;20181;-76
2024/03/15 10:26:49;;;;;;;2.23;1.70;;;;;;;14.31;63.93;95331.13;5076006;28;20258;-77
2024/03/15 10:29:14;;;;;;;1.20;1.00;;;;;;;14.89;62.91;95332.22;5059617;28;20213;-77
2024/03/15 10:31:41;;;;;;;3.57;1.00;;;;;;;14.44;62.28;95315.66;5059943;28;20783;-77
2024/03/15 10:34:11;;;;;;;1.10;1.00;;;;;;;14.21;63.57;95333.13;5060551;28;20207;-77
2024/03/15 10:36:38;;;;;;;1.33;1.23;;;;;;;14.67;62.55;95331.31;5076486;28;20240;-77
2024/03/15 10:39:03;;;;;;;1.60;1.23;;;;;;;14.47;62.10;95321.53;5061918;28;20176;-77
2024/03/15 10:41:29;;;;;;;2.07;1.57;;;;;;;14.06;62.50;95306.19;5056824;28;20650;-77
2024/03/15 10:43:57;;;;;;;1.67;1.43;;;;;;;14.06;63.52;95314.00;5059410;28;20528;-77
2024/03/15 10:46:22;;;;;;;1.03;0.93;;;;;;;14.38;62.56;95320.75;5075840;28;20673;-77
2024/03/15 10:48:48;;;;;;;2.17;1.00;;;;;;;14.72;60.50;95304.63;5062496;28;20212;-77
2024/03/15 10:51:14;;;;;;;4.03;1.27;;;;;;;14.97;60.40;95313.84;5075705;28;20818;-78
2024/03/15 10:53:40;;;;;;;1.47;1.20;;;;;;;15.15;58.55;95307.44;5072649;28;20253;-77
2024/03/15 10:56:06;;;;;;;1.10;0.90;;;;;;;15.39;57.38;95304.53;5059692;28;20211;-77
2024/03/15 10:58:31;;;;;;;1.37;1.20;;;;;;;15.36;57.33;95306.69;5081346;28;20276;-77
2024/03/15 11:00:57;;;;;;;2.20;1.20;;;;;;;15.59;57.04;95297.72;5071096;28;20271;-77
2024/03/15 11:03:28;;;;;;;2.80;1.30;;;;;;;15.18;57.09;95301.84;5056466;28;20196;-79
2024/03/15 11:05:53;;;;;;;2.10;1.37;;;;;;;15.42;56.79;95291.06;5058333;28;20200;-76
2024/03/15 11:08:22;;;;;;;2.03;1.40;;;;;;;15.00;58.40;95297.78;5091588;28;20299;-77
2024/03/15 11:10:55;;;;;;;1.10;1.00;;;;;;;15.50;56.62;95311.09;5056903;28;20241;-77
2024/03/15 11:13:23;;;;;;;3.20;1.20;;;;;;;15.48;56.39;95319.13;5074244;28;20196;-77
2024/03/15 11:15:48;;;;;;;2.63;1.13;;;;;;;15.61;56.65;95320.31;5073384;28;20254;-77
2024/03/15 11:18:15;;;;;;;3.07;1.70;;;;;;;15.27;56.62;95324.28;5072426;28;20177;-78
2024/03/15 11:20:52;;;;;;;1.80;1.30;;;;;;;15.35;56.77;95318.97;5078086;28;20189;-77
2024/03/15 11:23:18;;;;;;;1.27;0.97;;;;;;;15.24;56.32;95325.47;5095383;28;20188;-77
2024/03/15 11:25:56;;;;;;;1.73;1.40;;;;;;;15.73;55.98;95324.09;5088709;28;20251;-77
2024/03/15 11:28:27;;;;;;;1.70;1.27;;;;;;;15.94;55.41;95325.91;5060666;28;20205;-77
2024/03/15 11:30:52;;;;;;;2.17;1.35;;;;;;;15.80;55.63;95341.47;5079418;28;20676;-77
2024/03/15 11:33:21;;;;;;;3.10;1.37;;;;;;;15.93;55.84;95327.72;5061830;28;20185;-77
2024/03/15 11:35:48;;;;;;;1.63;1.30;;;;;;;16.18;54.21;95336.03;5059697;28;20205;-77
2024/03/15 11:38:15;;;;;;;2.70;1.17;;;;;;;16.41;54.57;95335.81;5058631;28;20542;-77